createdAt,value
2019-05-05T00:01:31.266Z,4.80
2019-05-05T00:04:24.298Z,4.90
2019-05-05T00:06:54.890Z,4.60
2019-05-05T00:09:25.216Z,4.50
2019-05-05T00:12:17.610Z,4.50
2019-05-05T00:15:05.349Z,4.50
2019-05-05T00:17:35.082Z,4.70
2019-05-05T00:20:05.333Z,4.30
2019-05-05T00:22:35.060Z,4.50
2019-05-05T00:25:05.136Z,4.40
2019-05-05T00:27:34.842Z,4.30
2019-05-05T00:30:05.400Z,4.40
2019-05-05T00:32:34.977Z,4.60
2019-05-05T00:35:04.691Z,4.60
2019-05-05T00:37:34.635Z,4.50
2019-05-05T00:40:05.060Z,4.50
2019-05-05T00:42:35.190Z,4.50
2019-05-05T00:45:05.970Z,4.30
2019-05-05T00:47:45.075Z,4.30
2019-05-05T00:50:17.506Z,4.30
2019-05-05T00:52:47.004Z,4.30
2019-05-05T00:55:17.635Z,4.30
2019-05-05T00:57:47.120Z,4.30
2019-05-05T01:00:41.711Z,4.30
2019-05-05T01:03:11.549Z,4.40
2019-05-05T01:06:01.292Z,4.30
2019-05-05T01:08:30.821Z,4.10
2019-05-05T01:11:00.407Z,4.20
2019-05-05T01:13:29.899Z,4.20
2019-05-05T01:15:59.434Z,4.20
2019-05-05T01:18:28.935Z,4.00
2019-05-05T01:20:58.427Z,4.10
2019-05-05T01:23:28.006Z,4.00
2019-05-05T01:25:57.495Z,4.20
2019-05-05T01:28:27.086Z,4.10
2019-05-05T01:31:00.531Z,4.00
2019-05-05T01:33:35.889Z,4.00
2019-05-05T01:36:05.976Z,3.90
2019-05-05T01:38:55.254Z,3.90
2019-05-05T01:41:37.027Z,3.80
2019-05-05T01:44:06.523Z,3.60
2019-05-05T01:46:36.149Z,3.60
2019-05-05T01:49:05.743Z,3.70
2019-05-05T01:51:35.592Z,3.80
2019-05-05T01:54:05.453Z,3.80
2019-05-05T01:56:35.613Z,3.60
2019-05-05T01:59:05.393Z,3.70
2019-05-05T02:01:35.293Z,3.60
2019-05-05T02:04:05.633Z,3.70
2019-05-05T02:06:35.357Z,3.70
2019-05-05T02:09:07.138Z,3.70
2019-05-05T02:11:36.728Z,3.60
2019-05-05T02:14:08.077Z,3.60
2019-05-05T02:16:37.658Z,3.50
2019-05-05T02:19:07.310Z,3.40
2019-05-05T02:21:36.842Z,3.40
2019-05-05T02:24:06.375Z,3.40
2019-05-05T02:26:36.151Z,3.50
2019-05-05T02:29:17.211Z,3.40
2019-05-05T02:32:06.348Z,3.40
2019-05-05T02:34:39.003Z,3.30
2019-05-05T02:37:08.720Z,3.20
2019-05-05T02:39:44.831Z,3.30
2019-05-05T02:42:09.669Z,3.20
2019-05-05T02:44:39.878Z,3.30
2019-05-05T02:47:17.177Z,3.20
2019-05-05T02:49:47.167Z,3.10
2019-05-05T02:52:17.899Z,3.00
2019-05-05T02:54:53.517Z,2.80
2019-05-05T02:57:24.713Z,2.70
2019-05-05T02:59:59.403Z,3.00
2019-05-05T03:02:32.272Z,3.00
2019-05-05T03:05:04.218Z,2.80
2019-05-05T03:07:36.004Z,2.90
2019-05-05T03:10:06.172Z,2.80
2019-05-05T03:12:38.605Z,3.00
2019-05-05T03:15:08.534Z,3.00
2019-05-05T03:17:38.443Z,2.90
2019-05-05T03:20:08.466Z,2.90
2019-05-05T03:22:38.069Z,2.90
2019-05-05T03:25:07.771Z,2.90
2019-05-05T03:27:38.018Z,2.90
2019-05-05T03:30:07.876Z,2.60
2019-05-05T03:32:37.364Z,2.60
2019-05-05T03:35:07.467Z,2.80
2019-05-05T03:37:37.508Z,2.70
2019-05-05T03:40:14.797Z,2.70
2019-05-05T03:42:54.161Z,2.70
2019-05-05T03:45:44.540Z,2.70
2019-05-05T03:48:14.748Z,2.60
2019-05-05T03:50:44.693Z,2.60
2019-05-05T03:53:14.231Z,2.60
2019-05-05T03:55:44.214Z,2.40
2019-05-05T03:58:14.645Z,2.40
2019-05-05T04:01:11.829Z,2.60
2019-05-05T04:03:43.454Z,2.70
2019-05-05T04:06:14.578Z,2.80
2019-05-05T04:08:45.268Z,2.70
2019-05-05T04:11:17.761Z,2.60
2019-05-05T04:13:47.716Z,2.70
2019-05-05T04:16:26.301Z,2.60
2019-05-05T04:18:59.895Z,2.70
2019-05-05T04:21:33.633Z,2.60
2019-05-05T04:24:00.581Z,2.70
2019-05-05T04:26:33.530Z,2.70
2019-05-05T04:29:05.355Z,2.70
2019-05-05T04:31:34.692Z,2.70
2019-05-05T04:34:04.302Z,2.70
2019-05-05T04:36:34.122Z,2.90
2019-05-05T04:39:05.850Z,2.80
2019-05-05T04:41:35.532Z,2.90
2019-05-05T04:44:06.447Z,3.10
2019-05-05T04:46:36.087Z,3.10
2019-05-05T04:49:15.940Z,3.30
2019-05-05T04:51:50.301Z,3.40
2019-05-05T04:54:29.690Z,3.60
2019-05-05T04:56:59.262Z,3.90
2019-05-05T04:59:28.743Z,3.70
2019-05-05T05:02:03.908Z,3.80
2019-05-05T05:04:57.985Z,4.10
2019-05-05T05:07:27.556Z,4.60
2019-05-05T05:09:57.086Z,5.40
2019-05-05T05:12:26.649Z,5.60
2019-05-05T05:14:56.141Z,5.60
2019-05-05T05:17:33.806Z,5.80
2019-05-05T05:20:03.827Z,6.10
2019-05-05T05:22:33.493Z,6.80
2019-05-05T05:25:04.475Z,7.00
2019-05-05T05:27:34.102Z,7.20
2019-05-05T05:30:04.681Z,7.30
2019-05-05T05:32:34.311Z,7.10
2019-05-05T05:35:03.859Z,7.20
2019-05-05T05:37:34.269Z,7.10
2019-05-05T05:40:14.429Z,6.90
2019-05-05T05:42:44.066Z,7.20
2019-05-05T05:45:38.449Z,7.20
2019-05-05T05:48:30.706Z,7.80
2019-05-05T05:51:04.226Z,8.60
2019-05-05T05:53:34.879Z,8.20
2019-05-05T05:56:04.574Z,8.60
2019-05-05T05:58:36.315Z,9.10
2019-05-05T06:01:05.808Z,9.60
2019-05-05T06:03:35.276Z,9.60
2019-05-05T06:06:04.939Z,9.50
2019-05-05T06:08:34.836Z,9.60
2019-05-05T06:11:04.665Z,9.40
2019-05-05T06:13:34.218Z,10.70
2019-05-05T06:16:04.355Z,10.00
2019-05-05T06:18:35.048Z,10.30
2019-05-05T06:21:04.763Z,10.80
2019-05-05T06:23:34.500Z,10.10
2019-05-05T06:26:06.752Z,10.70
2019-05-05T06:28:35.457Z,11.20
2019-05-05T06:31:05.084Z,11.30
2019-05-05T06:33:34.918Z,11.30
2019-05-05T06:36:04.437Z,10.60
2019-05-05T06:38:34.575Z,11.20
2019-05-05T06:41:18.465Z,11.00
2019-05-05T06:44:05.441Z,11.30
2019-05-05T06:46:54.899Z,12.20
2019-05-05T06:49:24.394Z,11.90
2019-05-05T06:51:54.692Z,12.50
2019-05-05T06:54:24.477Z,13.20
2019-05-05T06:56:54.029Z,12.30
2019-05-05T06:59:24.315Z,12.60
2019-05-05T07:01:53.960Z,12.00
2019-05-05T07:04:24.539Z,12.10
2019-05-05T07:06:57.067Z,12.50
2019-05-05T07:09:25.469Z,12.90
2019-05-05T07:11:54.995Z,12.60
2019-05-05T07:14:24.461Z,12.60
2019-05-05T07:16:54.487Z,12.40
2019-05-05T07:19:24.052Z,12.20
2019-05-05T07:21:54.010Z,11.70
2019-05-05T07:24:23.980Z,13.30
2019-05-05T07:26:54.140Z,13.70
2019-05-05T07:29:24.025Z,13.60
2019-05-05T07:31:54.559Z,12.70
2019-05-05T07:34:25.676Z,13.80
2019-05-05T07:36:55.189Z,13.70
2019-05-05T07:39:24.687Z,14.00
2019-05-05T07:41:54.373Z,13.40
2019-05-05T07:44:29.338Z,13.50
2019-05-05T07:46:54.993Z,14.50
2019-05-05T07:49:24.496Z,14.40
2019-05-05T07:51:54.755Z,15.10
2019-05-05T07:54:24.546Z,14.80
2019-05-05T07:56:54.092Z,15.20
2019-05-05T07:59:23.920Z,15.10
2019-05-05T08:01:54.800Z,15.00
2019-05-05T08:04:24.454Z,15.50
2019-05-05T08:06:54.044Z,15.30
2019-05-05T08:09:24.920Z,15.50
2019-05-05T08:11:54.702Z,16.10
2019-05-05T08:14:24.639Z,16.20
2019-05-05T08:17:12.169Z,16.50
2019-05-05T08:19:50.779Z,16.80
2019-05-05T08:22:23.627Z,16.70
2019-05-05T08:25:01.136Z,16.60
2019-05-05T08:27:44.704Z,16.60
2019-05-05T08:30:20.946Z,16.60
2019-05-05T08:32:51.229Z,16.80
2019-05-05T08:35:20.750Z,15.90
2019-05-05T08:37:50.249Z,16.00
2019-05-05T08:40:19.789Z,16.60
2019-05-05T08:42:49.251Z,16.80
2019-05-05T08:45:18.742Z,17.20
2019-05-05T08:47:48.275Z,18.00
2019-05-05T08:50:17.801Z,17.90
2019-05-05T08:52:47.283Z,17.70
2019-05-05T08:55:16.782Z,17.50
2019-05-05T08:57:46.441Z,17.60
2019-05-05T09:00:16.293Z,17.20
2019-05-05T09:02:45.770Z,17.40
2019-05-05T09:05:15.460Z,18.40
2019-05-05T09:07:44.947Z,17.60
2019-05-05T09:10:14.585Z,16.00
2019-05-05T09:12:44.089Z,16.10
2019-05-05T09:15:13.887Z,16.90
2019-05-05T09:17:43.987Z,16.70
2019-05-05T09:20:14.734Z,17.60
2019-05-05T09:22:44.649Z,17.80
2019-05-05T09:25:45.111Z,18.00
2019-05-05T09:28:36.583Z,18.00
2019-05-05T09:31:06.244Z,17.70
2019-05-05T09:33:35.741Z,17.90
2019-05-05T09:36:05.516Z,18.20
2019-05-05T09:38:37.924Z,18.20
2019-05-05T09:41:07.410Z,18.40
2019-05-05T09:43:36.974Z,18.60
2019-05-05T09:46:06.451Z,18.10
2019-05-05T09:48:36.013Z,18.20
2019-05-05T09:51:05.506Z,17.70
2019-05-05T09:53:35.031Z,17.50
2019-05-05T09:56:04.534Z,17.30
2019-05-05T09:58:34.765Z,17.40
2019-05-05T10:01:05.346Z,17.00
2019-05-05T10:03:34.871Z,17.60
2019-05-05T10:06:04.989Z,18.30
2019-05-05T10:08:35.135Z,18.60
2019-05-05T10:11:04.703Z,18.50
2019-05-05T10:13:34.221Z,18.20
2019-05-05T10:16:04.579Z,17.70
2019-05-05T10:18:35.830Z,18.10
2019-05-05T10:21:05.227Z,17.40
2019-05-05T10:23:36.810Z,17.20
2019-05-05T10:26:09.169Z,17.30
2019-05-05T10:28:38.771Z,17.20
2019-05-05T10:31:08.279Z,16.80
2019-05-05T10:33:40.440Z,16.60
2019-05-05T10:36:10.379Z,16.20
2019-05-05T10:38:42.141Z,16.90
2019-05-05T10:41:13.545Z,17.90
2019-05-05T10:43:43.699Z,17.60
2019-05-05T10:46:14.376Z,14.70
2019-05-05T10:48:44.618Z,14.40
2019-05-05T10:51:14.203Z,15.90
2019-05-05T10:53:43.948Z,17.10
2019-05-05T10:56:13.788Z,17.00
2019-05-05T10:58:44.105Z,16.80
2019-05-05T11:01:14.564Z,16.40
2019-05-05T11:03:44.707Z,16.50
2019-05-05T11:06:14.306Z,15.50
2019-05-05T11:08:45.129Z,16.30
2019-05-05T11:11:14.853Z,16.10
2019-05-05T11:13:46.533Z,16.00
2019-05-05T11:16:16.063Z,16.00
2019-05-05T11:18:45.637Z,16.90
2019-05-05T11:21:15.229Z,17.20
2019-05-05T11:23:44.934Z,16.80
2019-05-05T11:26:14.528Z,16.50
2019-05-05T11:28:44.633Z,15.60
2019-05-05T11:31:14.183Z,16.10
2019-05-05T11:34:07.745Z,16.30
2019-05-05T11:36:56.072Z,16.00
2019-05-05T11:39:25.604Z,15.90
2019-05-05T11:41:55.120Z,15.10
2019-05-05T11:44:24.614Z,15.60
2019-05-05T11:46:54.661Z,16.50
2019-05-05T11:49:24.953Z,17.30
2019-05-05T11:51:55.824Z,16.30
2019-05-05T11:54:25.446Z,16.50
2019-05-05T11:56:55.075Z,16.90
2019-05-05T11:59:24.597Z,16.70
2019-05-05T12:01:55.046Z,16.30
2019-05-05T12:04:24.927Z,16.10
2019-05-05T12:06:54.472Z,16.40
2019-05-05T12:09:48.865Z,16.40
2019-05-05T12:12:18.402Z,16.10
2019-05-05T12:14:48.126Z,16.30
2019-05-05T12:17:34.342Z,16.60
2019-05-05T12:20:05.605Z,16.40
2019-05-05T12:22:35.120Z,16.00
2019-05-05T12:25:06.721Z,15.80
2019-05-05T12:27:41.216Z,15.70
2019-05-05T12:30:14.132Z,16.20
2019-05-05T12:32:43.868Z,16.40
2019-05-05T12:35:14.871Z,17.00
2019-05-05T12:37:44.626Z,17.30
2019-05-05T12:40:14.430Z,16.80
2019-05-05T12:42:44.075Z,16.60
2019-05-05T12:45:17.625Z,16.30
2019-05-05T12:48:05.141Z,16.50
2019-05-05T12:50:34.655Z,16.80
2019-05-05T12:53:04.219Z,16.50
2019-05-05T12:55:41.542Z,16.40
2019-05-05T12:58:05.583Z,16.70
2019-05-05T13:00:36.471Z,16.90
2019-05-05T13:03:06.053Z,17.00
2019-05-05T13:05:35.617Z,17.30
2019-05-05T13:08:05.355Z,16.60
2019-05-05T13:10:34.951Z,16.50
2019-05-05T13:13:04.677Z,16.70
2019-05-05T13:15:34.214Z,16.60
2019-05-05T13:18:03.775Z,16.60
2019-05-05T13:21:01.770Z,16.40
2019-05-05T13:23:47.716Z,16.70
2019-05-05T13:26:23.663Z,15.90
2019-05-05T13:28:54.261Z,16.50
2019-05-05T13:31:23.831Z,16.90
2019-05-05T13:33:54.846Z,17.30
2019-05-05T13:36:24.578Z,17.20
2019-05-05T13:38:54.655Z,17.30
2019-05-05T13:41:26.759Z,16.60
2019-05-05T13:43:57.954Z,17.20
2019-05-05T13:46:29.506Z,16.40
2019-05-05T13:49:24.041Z,17.40
2019-05-05T13:51:54.117Z,17.70
2019-05-05T13:54:24.341Z,17.90
2019-05-05T13:56:54.085Z,17.70
2019-05-05T13:59:25.519Z,17.80
2019-05-05T14:01:55.743Z,18.00
2019-05-05T14:04:25.978Z,17.40
2019-05-05T14:06:56.063Z,17.40
2019-05-05T14:09:25.672Z,17.40
2019-05-05T14:11:55.316Z,17.40
2019-05-05T14:14:24.935Z,17.50
2019-05-05T14:16:54.569Z,16.90
2019-05-05T14:19:24.816Z,17.00
2019-05-05T14:21:54.509Z,16.60
2019-05-05T14:24:36.427Z,16.90
2019-05-05T14:27:05.935Z,17.40
2019-05-05T14:29:59.189Z,17.10
2019-05-05T14:32:31.969Z,17.40
2019-05-05T14:35:23.272Z,17.20
2019-05-05T14:37:58.226Z,17.50
2019-05-05T14:40:27.847Z,17.90
2019-05-05T14:43:00.128Z,17.60
2019-05-05T14:45:33.880Z,17.80
2019-05-05T14:48:00.805Z,17.40
2019-05-05T14:50:30.323Z,17.30
2019-05-05T14:52:59.806Z,17.60
2019-05-05T14:55:29.394Z,17.70
2019-05-05T14:57:59.026Z,17.80
2019-05-05T15:00:29.294Z,17.20
2019-05-05T15:02:58.860Z,17.80
2019-05-05T15:05:54.768Z,17.30
2019-05-05T15:08:49.325Z,17.30
2019-05-05T15:11:36.588Z,17.30
2019-05-05T15:14:06.962Z,17.20
2019-05-05T15:16:36.629Z,17.30
2019-05-05T15:19:06.119Z,17.10
2019-05-05T15:21:35.636Z,16.90
2019-05-05T15:24:05.137Z,17.30
2019-05-05T15:26:34.658Z,17.00
2019-05-05T15:29:04.174Z,17.20
2019-05-05T15:31:34.174Z,17.20
2019-05-05T15:34:04.216Z,17.00
2019-05-05T15:36:33.932Z,16.90
2019-05-05T15:39:04.488Z,16.40
2019-05-05T15:41:34.208Z,16.50
2019-05-05T15:44:03.804Z,16.50
2019-05-05T15:46:33.780Z,16.60
2019-05-05T15:49:04.185Z,16.30
2019-05-05T15:51:34.381Z,16.00
2019-05-05T15:54:04.162Z,15.60
2019-05-05T15:56:34.181Z,15.60
2019-05-05T15:59:03.847Z,15.50
2019-05-05T16:01:34.532Z,15.60
2019-05-05T16:04:04.100Z,15.50
2019-05-05T16:06:34.495Z,15.30
2019-05-05T16:09:06.586Z,15.10
2019-05-05T16:11:36.071Z,15.00
2019-05-05T16:14:05.614Z,14.70
2019-05-05T16:16:55.789Z,14.70
2019-05-05T16:20:01.434Z,14.50
2019-05-05T16:22:36.875Z,14.80
2019-05-05T16:25:14.186Z,14.70
2019-05-05T16:27:44.816Z,15.00
2019-05-05T16:30:16.909Z,14.90
2019-05-05T16:32:46.379Z,14.70
2019-05-05T16:35:17.622Z,14.80
2019-05-05T16:37:47.106Z,14.90
2019-05-05T16:40:16.837Z,14.80
2019-05-05T16:42:46.399Z,14.50
2019-05-05T16:45:16.739Z,14.50
2019-05-05T16:47:46.391Z,14.50
2019-05-05T16:50:16.092Z,14.10
2019-05-05T16:52:54.623Z,13.90
2019-05-05T16:55:46.323Z,14.40
2019-05-05T16:58:15.893Z,14.20
2019-05-05T17:00:45.624Z,14.20
2019-05-05T17:03:15.269Z,14.20
2019-05-05T17:05:46.726Z,14.20
2019-05-05T17:08:16.261Z,14.20
2019-05-05T17:10:45.870Z,14.40
2019-05-05T17:13:41.679Z,14.40
2019-05-05T17:16:29.099Z,14.10
2019-05-05T17:19:15.985Z,14.10
2019-05-05T17:22:05.061Z,14.10
2019-05-05T17:24:38.627Z,14.30
2019-05-05T17:27:07.259Z,14.30
2019-05-05T17:29:36.837Z,14.10
2019-05-05T17:32:11.118Z,13.90
2019-05-05T17:34:44.921Z,14.10
2019-05-05T17:37:24.106Z,14.00
2019-05-05T17:40:09.945Z,13.90
2019-05-05T17:43:04.275Z,13.90
2019-05-05T17:45:51.371Z,13.70
2019-05-05T17:48:30.971Z,13.60
2019-05-05T17:51:19.472Z,13.70
2019-05-05T17:54:07.945Z,13.30
2019-05-05T17:56:39.761Z,13.40
2019-05-05T17:59:09.620Z,13.40
2019-05-05T18:01:41.695Z,13.40
2019-05-05T18:04:11.233Z,13.50
2019-05-05T18:06:58.601Z,13.40
2019-05-05T18:09:53.863Z,13.20
2019-05-05T18:12:54.578Z,13.20
2019-05-05T18:15:43.344Z,12.90
2019-05-05T18:18:13.936Z,12.80
2019-05-05T18:20:44.904Z,12.80
2019-05-05T18:23:15.328Z,12.80
2019-05-05T18:25:44.905Z,12.70
2019-05-05T18:28:19.703Z,12.80
2019-05-05T18:30:45.710Z,12.70
2019-05-05T18:33:17.371Z,12.60
2019-05-05T18:35:46.930Z,12.60
2019-05-05T18:38:16.690Z,12.50
2019-05-05T18:40:47.489Z,12.40
2019-05-05T18:43:24.430Z,12.40
2019-05-05T18:46:05.144Z,12.40
2019-05-05T18:48:34.753Z,12.20
2019-05-05T18:51:04.516Z,12.10
2019-05-05T18:53:37.419Z,12.20
2019-05-05T18:56:06.902Z,12.20
2019-05-05T18:58:36.967Z,12.10
2019-05-05T19:01:13.551Z,12.00
2019-05-05T19:04:00.642Z,12.00
2019-05-05T19:06:48.003Z,11.90
2019-05-05T19:09:20.532Z,11.80
2019-05-05T19:11:49.994Z,11.80
2019-05-05T19:14:24.313Z,11.70
2019-05-05T19:16:55.649Z,11.60
2019-05-05T19:19:28.661Z,11.50
2019-05-05T19:22:04.231Z,11.50
2019-05-05T19:24:35.328Z,11.40
2019-05-05T19:27:05.013Z,11.30
2019-05-05T19:29:34.804Z,11.20
2019-05-05T19:32:04.490Z,11.10
2019-05-05T19:34:35.471Z,10.90
2019-05-05T19:37:05.268Z,10.80
2019-05-05T19:39:34.949Z,10.80
2019-05-05T19:42:04.889Z,10.80
2019-05-05T19:44:34.562Z,10.80
2019-05-05T19:47:10.773Z,10.70
2019-05-05T19:49:44.614Z,10.70
2019-05-05T19:52:14.298Z,10.40
2019-05-05T19:54:47.348Z,10.30
2019-05-05T19:57:14.916Z,10.20
2019-05-05T19:59:44.806Z,10.00
2019-05-05T20:02:14.522Z,10.00
2019-05-05T20:04:44.600Z,10.00
2019-05-05T20:07:15.277Z,10.00
2019-05-05T20:09:44.938Z,9.90
2019-05-05T20:12:14.819Z,9.80
2019-05-05T20:14:45.129Z,9.90
2019-05-05T20:17:21.561Z,10.00
2019-05-05T20:19:51.015Z,9.80
2019-05-05T20:22:20.722Z,9.80
2019-05-05T20:24:50.340Z,9.80
2019-05-05T20:27:19.861Z,9.60
2019-05-05T20:29:51.483Z,9.70
2019-05-05T20:32:27.980Z,9.70
2019-05-05T20:35:06.162Z,9.60
2019-05-05T20:37:48.350Z,9.50
2019-05-05T20:40:19.559Z,9.40
2019-05-05T20:42:49.073Z,9.40
2019-05-05T20:45:23.828Z,9.40
2019-05-05T20:47:53.633Z,9.30
2019-05-05T20:50:24.723Z,9.20
2019-05-05T20:52:54.432Z,9.20
2019-05-05T20:55:25.940Z,9.10
2019-05-05T20:57:55.221Z,9.00
2019-05-05T21:00:24.697Z,8.90
2019-05-05T21:02:54.214Z,8.80
2019-05-05T21:05:24.187Z,8.70
2019-05-05T21:07:53.770Z,8.70
2019-05-05T21:10:24.139Z,8.60
2019-05-05T21:12:54.422Z,8.50
2019-05-05T21:15:24.626Z,8.50
2019-05-05T21:17:55.486Z,8.50
2019-05-05T21:20:25.068Z,8.40
2019-05-05T21:23:05.098Z,8.30
2019-05-05T21:25:40.031Z,8.20
2019-05-05T21:28:09.494Z,8.20
2019-05-05T21:30:44.928Z,8.20
2019-05-05T21:33:16.259Z,8.20
2019-05-05T21:35:55.128Z,8.20
2019-05-05T21:38:30.054Z,8.10
2019-05-05T21:40:59.721Z,8.00
2019-05-05T21:43:29.206Z,8.00
2019-05-05T21:45:58.730Z,7.90
2019-05-05T21:48:28.200Z,7.90
2019-05-05T21:51:15.608Z,7.90
2019-05-05T21:54:14.588Z,7.70
2019-05-05T21:56:53.427Z,7.70
2019-05-05T21:59:23.645Z,7.70
2019-05-05T22:01:53.425Z,7.60
2019-05-05T22:04:23.911Z,7.60
2019-05-05T22:06:54.089Z,7.50
2019-05-05T22:09:24.254Z,7.50
2019-05-05T22:11:54.453Z,7.50
2019-05-05T22:14:24.109Z,7.50
2019-05-05T22:16:54.406Z,7.40
2019-05-05T22:19:26.170Z,7.30
2019-05-05T22:22:00.659Z,7.20
2019-05-05T22:24:30.198Z,7.20
2019-05-05T22:26:59.678Z,7.20
2019-05-05T22:29:29.143Z,7.20
2019-05-05T22:31:58.634Z,7.20
2019-05-05T22:34:28.145Z,7.10
2019-05-05T22:36:57.621Z,7.00
2019-05-05T22:39:27.133Z,7.00
2019-05-05T22:41:56.639Z,6.90
2019-05-05T22:44:26.119Z,6.90
2019-05-05T22:46:55.690Z,6.80
2019-05-05T22:49:25.203Z,6.80
2019-05-05T22:51:54.681Z,6.70
2019-05-05T22:54:24.257Z,6.70
2019-05-05T22:56:53.986Z,6.70
2019-05-05T22:59:26.039Z,6.60
2019-05-05T23:01:57.561Z,6.50
2019-05-05T23:04:36.314Z,6.50
2019-05-05T23:07:24.063Z,6.50
2019-05-05T23:09:53.938Z,6.50
2019-05-05T23:12:24.377Z,6.40
2019-05-05T23:14:54.601Z,6.40
2019-05-05T23:17:30.076Z,6.30
2019-05-05T23:20:10.762Z,6.30
2019-05-05T23:22:59.185Z,6.30
2019-05-05T23:25:33.600Z,6.30
2019-05-05T23:28:04.077Z,6.20
2019-05-05T23:30:41.635Z,6.20
2019-05-05T23:33:04.903Z,6.20
2019-05-05T23:35:34.522Z,6.10
2019-05-05T23:38:04.614Z,6.10
2019-05-05T23:40:34.100Z,6.10
2019-05-05T23:43:04.507Z,6.00
2019-05-05T23:45:34.186Z,6.00
2019-05-05T23:48:03.827Z,5.90
2019-05-05T23:50:33.788Z,5.90
2019-05-05T23:53:03.370Z,5.90
2019-05-05T23:55:34.394Z,5.90
2019-05-05T23:58:04.081Z,5.80
